createdAt,value
2022-11-07T00:00:36.553Z,2.17
2022-11-07T00:03:03.312Z,2.10
2022-11-07T00:05:29.987Z,2.33
2022-11-07T00:07:56.685Z,2.47
2022-11-07T00:10:23.404Z,2.00
2022-11-07T00:12:50.147Z,2.33
2022-11-07T00:15:16.984Z,2.20
2022-11-07T00:17:43.686Z,1.93
2022-11-07T00:20:10.754Z,2.00
2022-11-07T00:22:37.483Z,2.17
2022-11-07T00:25:04.547Z,1.87
2022-11-07T00:27:31.429Z,1.83
2022-11-07T00:29:58.223Z,2.10
2022-11-07T00:32:24.978Z,2.00
2022-11-07T00:34:51.711Z,2.00
2022-11-07T00:37:18.405Z,2.10
2022-11-07T00:39:45.061Z,1.93
2022-11-07T00:42:11.826Z,2.20
2022-11-07T00:44:38.691Z,1.83
2022-11-07T00:47:05.451Z,1.90
2022-11-07T00:49:32.188Z,2.00
2022-11-07T00:51:58.904Z,1.80
2022-11-07T00:54:25.650Z,2.00
2022-11-07T00:56:52.341Z,1.73
2022-11-07T00:59:19.125Z,2.07
2022-11-07T01:01:45.990Z,2.13
2022-11-07T01:04:32.477Z,1.70
2022-11-07T01:06:59.504Z,1.83
2022-11-07T01:09:26.356Z,2.23
2022-11-07T01:11:53.135Z,1.73
2022-11-07T01:14:22.145Z,2.37
2022-11-07T01:16:49.475Z,2.17
2022-11-07T01:19:16.393Z,1.67
2022-11-07T01:21:43.464Z,1.60
2022-11-07T01:24:12.255Z,1.67
2022-11-07T01:26:39.814Z,1.90
2022-11-07T01:29:06.600Z,1.93
2022-11-07T01:31:33.555Z,1.50
2022-11-07T01:34:00.950Z,1.80
2022-11-07T01:36:28.091Z,2.00
2022-11-07T01:38:54.954Z,1.73
2022-11-07T01:41:25.683Z,1.57
2022-11-07T01:44:07.042Z,1.60
2022-11-07T01:46:42.407Z,2.20
2022-11-07T01:49:17.470Z,1.80
2022-11-07T01:51:48.476Z,1.30
2022-11-07T01:54:19.284Z,2.07
2022-11-07T01:56:46.742Z,1.80
2022-11-07T01:59:17.663Z,1.47
2022-11-07T02:01:48.660Z,1.47
2022-11-07T02:04:17.118Z,1.73
2022-11-07T02:06:46.937Z,1.47
2022-11-07T02:09:14.476Z,1.77
2022-11-07T02:11:41.757Z,1.67
2022-11-07T02:14:13.171Z,1.47
2022-11-07T02:16:39.837Z,1.60
2022-11-07T02:19:13.254Z,1.60
2022-11-07T02:21:56.475Z,1.50
2022-11-07T02:24:23.169Z,1.67
2022-11-07T02:26:50.961Z,1.27
2022-11-07T02:29:17.793Z,1.77
2022-11-07T02:31:44.499Z,1.60
2022-11-07T02:34:11.187Z,1.40
2022-11-07T02:36:37.960Z,1.27
2022-11-07T02:39:04.880Z,1.60
2022-11-07T02:41:34.620Z,1.60
2022-11-07T02:44:06.767Z,2.00
2022-11-07T02:46:33.726Z,1.40
2022-11-07T02:49:01.716Z,2.10
2022-11-07T02:51:29.044Z,1.33
2022-11-07T02:53:55.929Z,1.90
2022-11-07T02:56:23.808Z,1.40
2022-11-07T02:58:52.426Z,2.20
2022-11-07T03:01:19.968Z,1.40
2022-11-07T03:03:49.436Z,2.07
2022-11-07T03:06:19.666Z,1.73
2022-11-07T03:08:46.654Z,1.63
2022-11-07T03:11:13.953Z,1.50
2022-11-07T03:13:40.807Z,1.40
2022-11-07T03:16:09.967Z,1.87
2022-11-07T03:18:37.487Z,1.47
2022-11-07T03:21:05.908Z,1.90
2022-11-07T03:23:35.142Z,1.73
2022-11-07T03:26:03.404Z,2.13
2022-11-07T03:28:30.218Z,1.80
2022-11-07T03:31:03.933Z,1.77
2022-11-07T03:33:31.425Z,1.27
2022-11-07T03:35:58.479Z,1.17
2022-11-07T03:38:25.347Z,1.53
2022-11-07T03:40:52.486Z,2.00
2022-11-07T03:43:19.302Z,1.27
2022-11-07T03:45:46.056Z,1.60
2022-11-07T03:48:12.880Z,1.27
2022-11-07T03:50:39.689Z,1.40
2022-11-07T03:53:06.474Z,1.40
2022-11-07T03:55:33.152Z,1.63
2022-11-07T03:57:59.884Z,1.30
2022-11-07T04:00:26.651Z,1.50
2022-11-07T04:02:53.543Z,1.17
2022-11-07T04:05:20.307Z,2.17
2022-11-07T04:07:47.029Z,1.63
2022-11-07T04:10:13.806Z,6.43
2022-11-07T04:12:59.405Z,2.13
2022-11-07T04:15:44.583Z,1.40
2022-11-07T04:18:11.285Z,1.40
2022-11-07T04:20:38.104Z,1.30
2022-11-07T04:23:04.951Z,0.97
2022-11-07T04:25:58.066Z,1.33
2022-11-07T04:28:24.862Z,1.67
2022-11-07T04:30:51.644Z,1.17
2022-11-07T04:33:18.413Z,1.33
2022-11-07T04:35:45.175Z,1.50
2022-11-07T04:38:11.909Z,1.20
2022-11-07T04:40:38.845Z,1.33
2022-11-07T04:43:09.365Z,1.40
2022-11-07T04:45:37.162Z,1.40
2022-11-07T04:48:04.916Z,1.20
2022-11-07T04:50:32.326Z,1.43
2022-11-07T04:52:59.040Z,1.67
2022-11-07T04:55:30.498Z,1.47
2022-11-07T04:57:57.958Z,1.53
2022-11-07T05:00:25.202Z,1.83
2022-11-07T05:02:52.166Z,1.20
2022-11-07T05:05:19.271Z,1.47
2022-11-07T05:07:46.555Z,1.13
2022-11-07T05:10:19.597Z,4.37
2022-11-07T05:12:46.344Z,1.30
2022-11-07T05:15:13.230Z,1.70
2022-11-07T05:17:40.067Z,1.30
2022-11-07T05:20:07.777Z,1.30
2022-11-07T05:22:56.321Z,1.37
2022-11-07T05:25:23.232Z,1.43
2022-11-07T05:27:55.299Z,1.40
2022-11-07T05:30:22.009Z,1.07
2022-11-07T05:32:48.836Z,1.20
2022-11-07T05:35:15.684Z,1.47
2022-11-07T05:37:42.423Z,1.70
2022-11-07T05:40:09.638Z,1.43
2022-11-07T05:42:36.330Z,1.50
2022-11-07T05:45:03.169Z,1.33
2022-11-07T05:47:29.868Z,1.60
2022-11-07T05:49:56.659Z,1.67
2022-11-07T05:52:23.391Z,1.37
2022-11-07T05:54:50.217Z,1.90
2022-11-07T05:57:16.977Z,2.43
2022-11-07T05:59:43.705Z,1.97
2022-11-07T06:02:10.609Z,1.70
2022-11-07T06:04:37.693Z,1.47
2022-11-07T06:07:04.442Z,1.67
2022-11-07T06:09:31.244Z,1.60
2022-11-07T06:11:58.828Z,1.00
2022-11-07T06:14:25.729Z,1.73
2022-11-07T06:16:52.443Z,1.60
2022-11-07T06:19:19.165Z,1.40
2022-11-07T06:21:45.788Z,1.70
2022-11-07T06:24:15.226Z,1.30
2022-11-07T06:26:42.400Z,1.50
2022-11-07T06:29:09.119Z,1.70
2022-11-07T06:31:35.832Z,1.50
2022-11-07T06:34:02.533Z,1.20
2022-11-07T06:36:29.214Z,1.63
2022-11-07T06:38:55.917Z,1.67
2022-11-07T06:41:22.630Z,1.70
2022-11-07T06:43:51.433Z,1.90
2022-11-07T06:46:19.798Z,1.83
2022-11-07T06:48:46.581Z,1.37
2022-11-07T06:51:13.230Z,1.87
2022-11-07T06:53:39.999Z,1.60
2022-11-07T06:56:08.250Z,1.40
2022-11-07T06:58:35.899Z,1.97
2022-11-07T07:01:09.675Z,1.80
2022-11-07T07:03:36.351Z,1.90
2022-11-07T07:06:05.722Z,1.87
2022-11-07T07:08:33.091Z,1.50
2022-11-07T07:11:08.120Z,1.60
2022-11-07T07:13:35.215Z,1.43
2022-11-07T07:16:01.901Z,1.50
2022-11-07T07:18:29.116Z,1.37
2022-11-07T07:21:06.455Z,2.13
2022-11-07T07:23:34.702Z,1.60
2022-11-07T07:26:02.849Z,1.30
2022-11-07T07:28:29.495Z,1.60
2022-11-07T07:31:13.714Z,1.53
2022-11-07T07:33:45.280Z,1.30
2022-11-07T07:36:17.779Z,1.40
2022-11-07T07:38:47.784Z,1.70
2022-11-07T07:41:14.443Z,1.50
2022-11-07T07:43:41.201Z,1.67
2022-11-07T07:46:08.770Z,1.30
2022-11-07T07:48:35.470Z,1.80
2022-11-07T07:51:02.305Z,1.67
2022-11-07T07:53:29.052Z,1.70
2022-11-07T07:56:00.170Z,1.63
2022-11-07T07:58:27.548Z,1.70
2022-11-07T08:00:57.668Z,1.67
2022-11-07T08:03:25.753Z,1.77
2022-11-07T08:05:58.929Z,1.93
2022-11-07T08:08:26.392Z,1.57
2022-11-07T08:10:56.009Z,1.43
2022-11-07T08:13:24.371Z,1.47
2022-11-07T08:15:52.355Z,1.80
2022-11-07T08:18:21.735Z,1.80
2022-11-07T08:20:53.217Z,1.80
2022-11-07T08:23:20.512Z,1.73
2022-11-07T08:26:05.809Z,1.37
2022-11-07T08:28:35.493Z,1.20
2022-11-07T08:31:08.388Z,1.80
2022-11-07T08:33:35.708Z,1.50
2022-11-07T08:36:03.411Z,1.53
2022-11-07T08:38:31.627Z,1.40
2022-11-07T08:40:59.179Z,1.57
2022-11-07T08:43:26.452Z,1.47
2022-11-07T08:45:54.449Z,1.73
2022-11-07T08:48:22.222Z,1.23
2022-11-07T08:50:56.850Z,1.47
2022-11-07T08:53:25.432Z,1.43
2022-11-07T08:55:52.815Z,1.30
2022-11-07T08:58:19.641Z,1.73
2022-11-07T09:00:46.509Z,1.57
2022-11-07T09:06:00.713Z,1.70
2022-11-07T09:08:27.387Z,1.40
2022-11-07T09:10:54.113Z,1.63
2022-11-07T09:13:21.119Z,1.70
2022-11-07T09:15:51.391Z,1.63
2022-11-07T09:18:19.682Z,1.30
2022-11-07T09:20:46.365Z,1.70
2022-11-07T09:23:13.302Z,1.70
2022-11-07T09:25:40.183Z,1.57
2022-11-07T09:28:06.844Z,1.60
2022-11-07T09:30:33.702Z,1.50
2022-11-07T09:33:01.002Z,1.80
2022-11-07T09:35:28.024Z,1.77
2022-11-07T09:37:54.999Z,1.73
2022-11-07T09:40:55.997Z,1.57
2022-11-07T09:43:43.920Z,1.13
2022-11-07T09:46:40.309Z,1.80
2022-11-07T09:49:27.877Z,1.63
2022-11-07T09:51:59.065Z,1.47
2022-11-07T09:54:31.247Z,1.40
2022-11-07T09:57:00.016Z,1.33
2022-11-07T09:59:49.927Z,1.67
2022-11-07T10:02:19.435Z,1.50
2022-11-07T10:04:51.756Z,1.43
2022-11-07T10:07:36.993Z,2.50
2022-11-07T10:10:35.754Z,1.70
2022-11-07T10:13:11.128Z,2.10
2022-11-07T10:15:47.711Z,1.87
2022-11-07T10:18:33.031Z,1.83
2022-11-07T10:21:35.895Z,3.10
2022-11-07T10:24:31.370Z,4.20
2022-11-07T10:26:58.410Z,2.27
2022-11-07T10:29:39.135Z,1.80
2022-11-07T10:32:17.174Z,2.80
2022-11-07T10:34:54.606Z,2.33
2022-11-07T10:37:21.895Z,2.40
2022-11-07T10:39:48.540Z,2.23
2022-11-07T10:42:20.915Z,1.80
2022-11-07T10:44:48.802Z,1.57
2022-11-07T10:47:17.684Z,1.67
2022-11-07T10:49:57.937Z,1.80
2022-11-07T10:52:26.160Z,2.33
2022-11-07T10:55:14.896Z,1.90
2022-11-07T10:57:43.174Z,2.43
2022-11-07T11:00:28.377Z,2.10
2022-11-07T11:02:56.717Z,2.57
2022-11-07T11:05:27.004Z,2.17
2022-11-07T11:07:56.569Z,2.50
2022-11-07T11:10:28.751Z,1.80
2022-11-07T11:12:56.201Z,1.87
2022-11-07T11:15:25.473Z,1.30
2022-11-07T11:18:07.194Z,1.50
2022-11-07T11:20:38.155Z,1.87
2022-11-07T11:23:15.646Z,2.03
2022-11-07T11:25:47.555Z,2.07
2022-11-07T11:28:45.391Z,2.60
2022-11-07T11:31:45.636Z,2.37
2022-11-07T11:34:36.418Z,1.20
2022-11-07T11:37:17.027Z,1.60
2022-11-07T11:39:52.161Z,2.60
2022-11-07T11:42:27.935Z,2.20
2022-11-07T11:44:59.415Z,2.10
2022-11-07T11:47:34.526Z,1.77
2022-11-07T11:50:05.700Z,2.80
2022-11-07T11:52:32.465Z,1.57
2022-11-07T11:55:01.189Z,1.77
2022-11-07T11:57:40.008Z,1.93
2022-11-07T12:00:15.968Z,1.30
2022-11-07T12:03:09.518Z,2.33
2022-11-07T12:06:12.808Z,1.77
2022-11-07T12:09:10.540Z,1.27
2022-11-07T12:11:40.460Z,1.60
2022-11-07T12:14:33.453Z,1.43
2022-11-07T12:17:22.929Z,1.53
2022-11-07T12:20:01.765Z,1.47
2022-11-07T12:22:43.035Z,1.80
2022-11-07T12:25:23.708Z,1.70
2022-11-07T12:28:03.244Z,1.70
2022-11-07T12:30:43.916Z,2.03
2022-11-07T12:33:32.193Z,2.83
2022-11-07T12:36:11.662Z,3.43
2022-11-07T12:38:53.454Z,1.60
2022-11-07T12:41:43.897Z,1.90
2022-11-07T12:44:33.713Z,1.40
2022-11-07T12:47:04.843Z,1.20
2022-11-07T12:49:43.215Z,1.37
2022-11-07T12:52:36.270Z,1.20
2022-11-07T12:55:17.020Z,1.13
2022-11-07T12:57:44.181Z,1.23
2022-11-07T13:00:23.315Z,1.80
2022-11-07T13:03:18.195Z,1.20
2022-11-07T13:06:23.079Z,1.37
2022-11-07T13:08:57.582Z,1.67
2022-11-07T13:11:45.759Z,1.60
2022-11-07T13:14:46.841Z,1.33
2022-11-07T13:17:24.171Z,1.57
2022-11-07T13:20:23.909Z,2.30
2022-11-07T13:22:56.026Z,1.90
2022-11-07T13:25:31.473Z,1.83
2022-11-07T13:27:58.479Z,1.40
2022-11-07T13:30:37.926Z,1.60
2022-11-07T13:33:06.146Z,2.27
2022-11-07T13:35:38.468Z,1.60
2022-11-07T13:38:13.361Z,1.57
2022-11-07T13:41:03.862Z,1.13
2022-11-07T13:43:44.572Z,1.90
2022-11-07T13:46:19.319Z,1.37
2022-11-07T13:48:53.571Z,1.07
2022-11-07T13:51:28.904Z,2.07
2022-11-07T13:54:30.194Z,1.63
2022-11-07T13:57:14.977Z,1.40
2022-11-07T13:59:54.654Z,1.40
2022-11-07T14:02:29.342Z,1.30
2022-11-07T14:05:17.881Z,1.00
2022-11-07T14:07:51.810Z,1.43
2022-11-07T14:10:38.089Z,1.33
2022-11-07T14:13:11.178Z,1.40
2022-11-07T14:15:49.631Z,1.10
2022-11-07T14:18:18.236Z,1.20
2022-11-07T14:20:54.342Z,1.70
2022-11-07T14:23:23.882Z,2.03
2022-11-07T14:25:59.810Z,1.63
2022-11-07T14:28:38.534Z,1.93
2022-11-07T14:31:07.732Z,2.10
2022-11-07T14:33:34.561Z,1.80
2022-11-07T14:36:05.918Z,2.13
2022-11-07T14:38:33.000Z,8.03
2022-11-07T14:41:01.958Z,1.60
2022-11-07T14:43:30.880Z,1.40
2022-11-07T14:46:12.374Z,1.83
2022-11-07T14:48:42.353Z,1.37
2022-11-07T14:51:13.319Z,1.57
2022-11-07T14:54:04.606Z,1.30
2022-11-07T14:56:41.895Z,1.20
2022-11-07T14:59:14.278Z,1.67
2022-11-07T15:01:57.249Z,1.40
2022-11-07T15:04:30.806Z,1.60
2022-11-07T15:07:08.657Z,1.30
2022-11-07T15:09:35.674Z,1.67
2022-11-07T15:12:07.339Z,2.27
2022-11-07T15:14:36.476Z,1.60
2022-11-07T15:17:07.424Z,1.50
2022-11-07T15:19:35.385Z,1.30
2022-11-07T15:22:04.885Z,1.23
2022-11-07T15:24:46.411Z,1.57
2022-11-07T15:27:33.092Z,1.27
2022-11-07T15:30:01.986Z,1.30
2022-11-07T15:32:36.830Z,1.20
2022-11-07T15:35:43.431Z,1.27
2022-11-07T15:38:02.348Z,1.20
2022-11-07T15:40:30.006Z,1.40
2022-11-07T15:42:56.954Z,1.70
2022-11-07T15:45:24.508Z,1.20
2022-11-07T15:47:51.529Z,1.50
2022-11-07T15:50:24.865Z,1.60
2022-11-07T15:52:52.900Z,1.90
2022-11-07T15:55:21.705Z,2.20
2022-11-07T15:57:51.631Z,2.60
2022-11-07T16:00:21.575Z,2.80
2022-11-07T16:02:48.965Z,2.47
2022-11-07T16:05:16.399Z,2.43
2022-11-07T16:07:45.103Z,1.77
2022-11-07T16:10:24.989Z,1.93
2022-11-07T16:12:53.195Z,1.47
2022-11-07T16:15:23.529Z,1.73
2022-11-07T16:17:50.380Z,1.40
2022-11-07T16:20:19.953Z,1.03
2022-11-07T16:22:48.387Z,1.20
2022-11-07T16:25:22.507Z,1.50
2022-11-07T16:27:59.118Z,1.50
2022-11-07T16:30:27.345Z,1.50
2022-11-07T16:32:54.198Z,1.63
2022-11-07T16:35:21.708Z,1.53
2022-11-07T16:37:48.570Z,1.47
2022-11-07T16:40:18.181Z,1.57
2022-11-07T16:42:46.117Z,1.70
2022-11-07T16:45:20.533Z,1.60
2022-11-07T16:47:48.037Z,1.77
2022-11-07T16:50:16.124Z,1.80
2022-11-07T16:52:42.923Z,2.20
2022-11-07T16:55:17.855Z,2.40
2022-11-07T16:57:45.339Z,2.00
2022-11-07T17:00:20.605Z,2.50
2022-11-07T17:02:47.572Z,2.07
2022-11-07T17:05:14.864Z,2.07
2022-11-07T17:07:41.916Z,2.33
2022-11-07T17:10:15.027Z,2.57
2022-11-07T17:12:41.792Z,2.10
2022-11-07T17:15:09.202Z,2.50
2022-11-07T17:17:35.941Z,2.60
2022-11-07T17:20:02.709Z,1.90
2022-11-07T17:22:29.455Z,2.03
2022-11-07T17:24:56.180Z,2.57
2022-11-07T17:27:25.330Z,2.10
2022-11-07T17:29:53.580Z,2.27
2022-11-07T17:32:20.587Z,2.13
2022-11-07T17:34:59.274Z,1.93
2022-11-07T17:37:35.389Z,2.27
2022-11-07T17:40:02.327Z,1.83
2022-11-07T17:42:32.532Z,1.87
2022-11-07T17:45:02.013Z,2.60
2022-11-07T17:47:31.405Z,3.10
2022-11-07T17:49:58.549Z,4.63
2022-11-07T17:52:25.243Z,5.30
2022-11-07T17:54:52.462Z,5.93
2022-11-07T17:57:19.332Z,5.73
2022-11-07T17:59:46.227Z,5.93
2022-11-07T18:02:18.090Z,5.00
2022-11-07T18:04:45.565Z,5.10
2022-11-07T18:07:12.861Z,6.90
2022-11-07T18:09:42.875Z,7.97
2022-11-07T18:12:10.859Z,9.67
2022-11-07T18:14:38.088Z,12.03
2022-11-07T18:17:05.276Z,11.40
2022-11-07T18:19:32.192Z,11.40
2022-11-07T18:21:59.348Z,9.17
2022-11-07T18:24:26.228Z,9.77
2022-11-07T18:26:53.250Z,8.77
2022-11-07T18:29:20.114Z,8.53
2022-11-07T18:31:51.291Z,8.70
2022-11-07T18:34:18.248Z,8.37
2022-11-07T18:36:45.477Z,8.87
2022-11-07T18:39:23.821Z,9.57
2022-11-07T18:41:52.201Z,27.23
2022-11-07T18:44:19.359Z,21.47
2022-11-07T18:46:46.835Z,24.87
2022-11-07T18:49:14.927Z,14.70
2022-11-07T18:51:45.195Z,10.43
2022-11-07T18:54:13.704Z,11.30
2022-11-07T18:56:41.653Z,9.63
2022-11-07T18:59:08.521Z,8.77
2022-11-07T19:01:35.610Z,8.93
2022-11-07T19:04:05.546Z,7.97
2022-11-07T19:06:32.887Z,6.87
2022-11-07T19:12:01.231Z,9.87
2022-11-07T19:14:30.676Z,8.93
2022-11-07T19:16:57.668Z,8.23
2022-11-07T19:19:24.388Z,8.53
2022-11-07T19:21:51.132Z,7.40
2022-11-07T19:24:17.811Z,8.47
2022-11-07T19:26:44.572Z,8.80
2022-11-07T19:29:11.333Z,6.23
2022-11-07T19:31:38.465Z,4.60
2022-11-07T19:34:05.737Z,3.97
2022-11-07T19:36:33.362Z,3.73
2022-11-07T19:39:02.756Z,4.17
2022-11-07T19:41:29.471Z,4.50
2022-11-07T19:43:57.254Z,3.70
2022-11-07T19:46:24.544Z,4.90
2022-11-07T19:48:51.712Z,5.37
2022-11-07T19:51:22.789Z,8.33
2022-11-07T19:53:58.482Z,8.33
2022-11-07T19:56:27.626Z,9.87
2022-11-07T19:58:55.242Z,11.00
2022-11-07T20:01:25.795Z,14.07
2022-11-07T20:03:54.021Z,11.83
2022-11-07T20:06:23.529Z,10.13
2022-11-07T20:08:51.542Z,25.67
2022-11-07T20:11:24.128Z,17.90
2022-11-07T20:13:52.444Z,10.10
2022-11-07T20:16:19.088Z,7.47
2022-11-07T20:18:45.890Z,7.23
2022-11-07T20:21:19.152Z,7.07
2022-11-07T20:23:46.860Z,11.37
2022-11-07T20:26:19.750Z,12.63
2022-11-07T20:28:49.010Z,11.47
2022-11-07T20:31:18.667Z,11.83
2022-11-07T20:33:45.545Z,12.27
2022-11-07T20:36:13.915Z,12.93
2022-11-07T20:38:41.837Z,30.37
2022-11-07T20:41:09.724Z,13.97
2022-11-07T20:43:37.019Z,13.60
2022-11-07T20:46:16.509Z,12.50
2022-11-07T20:48:43.357Z,14.23
2022-11-07T20:51:15.649Z,12.43
2022-11-07T20:53:48.471Z,12.03
2022-11-07T20:56:17.758Z,11.33
2022-11-07T20:58:44.806Z,12.00
2022-11-07T21:01:35.848Z,10.67
2022-11-07T21:04:08.148Z,11.07
2022-11-07T21:06:35.590Z,11.93
2022-11-07T21:09:03.432Z,11.03
2022-11-07T21:11:30.616Z,6.00
2022-11-07T21:13:57.734Z,7.03
2022-11-07T21:16:25.532Z,6.60
2022-11-07T21:18:54.147Z,9.10
2022-11-07T21:21:23.527Z,6.70
2022-11-07T21:23:50.971Z,5.30
2022-11-07T21:26:23.782Z,4.83
2022-11-07T21:28:50.625Z,6.40
2022-11-07T21:31:23.535Z,5.77
2022-11-07T21:33:51.217Z,8.00
2022-11-07T21:36:20.411Z,8.47
2022-11-07T21:38:47.425Z,26.27
2022-11-07T21:41:15.594Z,17.67
2022-11-07T21:43:42.788Z,8.47
2022-11-07T21:46:18.552Z,8.77
2022-11-07T21:48:45.846Z,7.10
2022-11-07T21:51:21.127Z,7.90
2022-11-07T21:53:48.664Z,5.43
2022-11-07T21:56:17.622Z,5.37
2022-11-07T21:58:44.548Z,4.67
2022-11-07T22:01:11.324Z,3.20
2022-11-07T22:04:04.604Z,4.47
2022-11-07T22:06:24.676Z,4.10
2022-11-07T22:08:51.622Z,4.37
2022-11-07T22:11:18.715Z,5.80
2022-11-07T22:13:45.780Z,5.70
2022-11-07T22:16:15.277Z,5.43
2022-11-07T22:18:42.340Z,5.20
2022-11-07T22:21:12.796Z,5.40
2022-11-07T22:23:40.188Z,4.63
2022-11-07T22:26:08.346Z,3.70
2022-11-07T22:28:35.032Z,3.27
2022-11-07T22:31:10.362Z,3.03
2022-11-07T22:33:37.092Z,3.37
2022-11-07T22:36:05.984Z,3.70
2022-11-07T22:38:34.372Z,4.50
2022-11-07T22:41:02.392Z,4.13
2022-11-07T22:43:32.169Z,3.70
2022-11-07T22:46:03.119Z,3.30
2022-11-07T22:48:30.273Z,3.90
2022-11-07T22:51:05.241Z,3.90
2022-11-07T22:53:32.024Z,3.97
2022-11-07T22:55:59.022Z,4.50
2022-11-07T22:58:25.687Z,5.17
2022-11-07T23:00:52.327Z,4.67
2022-11-07T23:03:19.056Z,4.70
2022-11-07T23:05:45.772Z,5.63
2022-11-07T23:08:12.464Z,6.50
2022-11-07T23:10:39.133Z,6.13
2022-11-07T23:13:05.862Z,5.70
2022-11-07T23:15:32.803Z,5.83
2022-11-07T23:17:59.519Z,5.10
2022-11-07T23:20:44.845Z,6.10
2022-11-07T23:23:11.540Z,5.13
2022-11-07T23:25:38.239Z,4.87
2022-11-07T23:28:07.352Z,4.67
2022-11-07T23:30:37.128Z,5.37
2022-11-07T23:33:03.858Z,4.57
2022-11-07T23:35:32.085Z,5.27
2022-11-07T23:37:58.871Z,4.67
2022-11-07T23:40:25.587Z,4.47
2022-11-07T23:42:52.273Z,4.20
2022-11-07T23:45:37.567Z,4.40
2022-11-07T23:48:23.106Z,4.17
2022-11-07T23:51:01.949Z,4.93
2022-11-07T23:53:49.817Z,4.23
2022-11-07T23:56:17.444Z,4.27
2022-11-07T23:59:02.961Z,4.40
